Time;durP1;ratioP1;P1;durP2;ratioP2;P2;SDS_P1;SDS_P2;PMS_P1;PMS_P2;Temp;Humidity;BMP_temperature;BMP_pressure;BME280_temperature;BME280_humidity;BME280_pressure;Samples;Min_cycle;Max_cycle;Signal;HPM_P1;HPM_P2
2024/04/14 00:00:59;;;;;;;3.70;2.75;;;;;;;;;;5521555;26;20004;-73
2024/04/14 00:03:25;;;;;;;8.75;3.95;;;;;;;;;;5523085;25;19998;-73
2024/04/14 00:05:51;;;;;;;9.00;3.38;;;;;;;;;;5522131;25;20007;-72
2024/04/14 00:08:18;;;;;;;8.73;3.17;;;;;;;;;;5525002;25;20022;-73
2024/04/14 00:10:44;;;;;;;9.20;3.47;;;;;;;;;;5528429;25;19993;-73
2024/04/14 00:13:10;;;;;;;5.50;3.70;;;;;;;;;;5527525;25;20004;-74
2024/04/14 00:15:36;;;;;;;6.78;3.40;;;;;;;;;;5522853;25;20498;-73
2024/04/14 00:18:02;;;;;;;3.80;3.25;;;;;;;;;;5523314;25;19997;-72
2024/04/14 00:20:28;;;;;;;4.63;2.95;;;;;;;;;;5523599;25;20009;-73
2024/04/14 00:22:54;;;;;;;6.90;3.83;;;;;;;;;;5520836;25;20073;-73
2024/04/14 00:25:20;;;;;;;5.88;2.78;;;;;;;;;;5522555;25;19989;-72
2024/04/14 00:27:46;;;;;;;4.28;2.90;;;;;;;;;;5523305;25;20005;-72
2024/04/14 00:30:12;;;;;;;5.25;2.80;;;;;;;;;;5523239;25;20412;-73
2024/04/14 00:32:40;;;;;;;4.03;2.72;;;;;;;;;;5526450;25;20356;-73
2024/04/14 00:35:06;;;;;;;7.07;3.30;;;;;;;;;;5524981;25;20005;-73
2024/04/14 00:37:32;;;;;;;5.35;3.33;;;;;;;;;;5527021;25;20021;-72
2024/04/14 00:39:58;;;;;;;12.65;3.50;;;;;;;;;;5524937;25;20436;-74
2024/04/14 00:42:24;;;;;;;5.25;3.85;;;;;;;;;;5525936;25;20004;-72
2024/04/14 00:44:50;;;;;;;5.15;2.90;;;;;;;;;;5524721;25;19990;-72
2024/04/14 00:47:16;;;;;;;4.35;2.67;;;;;;;;;;5525915;25;20061;-72
2024/04/14 00:49:42;;;;;;;6.05;3.30;;;;;;;;;;5526582;25;20005;-72
2024/04/14 00:52:10;;;;;;;4.97;3.30;;;;;;;;;;5524007;25;19997;-73
2024/04/14 00:54:36;;;;;;;4.32;3.15;;;;;;;;;;5524504;25;20074;-72
2024/04/14 00:57:06;;;;;;;5.22;2.58;;;;;;;;;;5524380;26;20004;-71
2024/04/14 00:59:32;;;;;;;11.23;3.08;;;;;;;;;;5526200;25;20451;-72
2024/04/14 01:01:58;;;;;;;6.10;2.72;;;;;;;;;;5526396;25;20372;-72
2024/04/14 01:04:24;;;;;;;10.40;3.35;;;;;;;;;;5526342;25;20298;-72
2024/04/14 01:06:50;;;;;;;6.82;3.50;;;;;;;;;;5526035;25;20003;-72
2024/04/14 01:09:17;;;;;;;6.68;3.38;;;;;;;;;;5525793;25;20412;-72
2024/04/14 01:11:43;;;;;;;6.38;3.10;;;;;;;;;;5523558;26;20006;-72
2024/04/14 01:14:09;;;;;;;8.70;4.00;;;;;;;;;;5525331;25;20073;-72
2024/04/14 01:16:36;;;;;;;5.20;3.03;;;;;;;;;;5526367;25;19997;-72
2024/04/14 01:19:06;;;;;;;6.10;3.17;;;;;;;;;;5529217;25;20029;-73
2024/04/14 01:21:32;;;;;;;3.88;2.67;;;;;;;;;;5528659;25;20313;-73
2024/04/14 01:23:58;;;;;;;5.90;2.67;;;;;;;;;;5527382;25;19989;-72
2024/04/14 01:26:24;;;;;;;8.77;2.70;;;;;;;;;;5527867;25;19993;-71
2024/04/14 01:28:51;;;;;;;6.63;2.90;;;;;;;;;;5530401;25;19994;-72
2024/04/14 01:31:17;;;;;;;9.65;3.15;;;;;;;;;;5526671;25;19997;-72
2024/04/14 01:33:44;;;;;;;3.72;2.38;;;;;;;;;;5526815;26;20069;-71
2024/04/14 01:36:10;;;;;;;7.78;2.92;;;;;;;;;;5527666;25;20408;-72
2024/04/14 01:38:36;;;;;;;6.00;3.00;;;;;;;;;;5524344;26;20328;-73
2024/04/14 01:41:02;;;;;;;6.22;2.92;;;;;;;;;;5524170;25;20013;-73
2024/04/14 01:43:29;;;;;;;4.05;2.80;;;;;;;;;;5526068;25;20004;-72
2024/04/14 01:45:55;;;;;;;6.05;3.72;;;;;;;;;;5525991;26;20185;-71
2024/04/14 01:48:21;;;;;;;4.15;3.15;;;;;;;;;;5526890;26;20431;-72
2024/04/14 01:50:48;;;;;;;5.88;3.08;;;;;;;;;;5528201;25;19993;-71
2024/04/14 01:53:14;;;;;;;5.82;2.92;;;;;;;;;;5526464;25;19997;-71
2024/04/14 01:55:43;;;;;;;4.10;3.10;;;;;;;;;;5524106;25;20008;-72
2024/04/14 01:58:09;;;;;;;6.88;3.15;;;;;;;;;;5525770;25;20325;-71
2024/04/14 02:00:35;;;;;;;5.47;3.00;;;;;;;;;;5525481;25;20004;-71
2024/04/14 02:03:01;;;;;;;6.93;3.83;;;;;;;;;;5524781;25;20008;-71
2024/04/14 02:05:27;;;;;;;8.52;3.25;;;;;;;;;;5523355;26;20009;-73
2024/04/14 02:07:53;;;;;;;8.45;3.55;;;;;;;;;;5525269;25;20336;-72
2024/04/14 02:10:19;;;;;;;9.18;3.22;;;;;;;;;;5525153;25;19997;-72
2024/04/14 02:12:45;;;;;;;15.00;3.97;;;;;;;;;;5523206;26;20004;-72
2024/04/14 02:15:11;;;;;;;7.75;3.38;;;;;;;;;;5523656;25;19994;-72
2024/04/14 02:17:37;;;;;;;6.63;3.75;;;;;;;;;;5527275;25;20005;-72
2024/04/14 02:20:04;;;;;;;6.03;3.75;;;;;;;;;;5527510;25;20001;-71
2024/04/14 02:22:30;;;;;;;6.43;3.15;;;;;;;;;;5525657;25;19998;-72
2024/04/14 02:24:56;;;;;;;9.10;4.05;;;;;;;;;;5525528;25;20370;-72
2024/04/14 02:27:22;;;;;;;6.80;3.55;;;;;;;;;;5525238;25;20004;-71
2024/04/14 02:29:48;;;;;;;8.45;3.60;;;;;;;;;;5522853;26;19997;-72
2024/04/14 02:32:14;;;;;;;7.25;2.97;;;;;;;;;;5524386;25;19993;-71
2024/04/14 02:34:41;;;;;;;8.25;3.20;;;;;;;;;;5524931;25;20005;-72
2024/04/14 02:37:07;;;;;;;4.93;3.33;;;;;;;;;;5524708;25;20462;-72
2024/04/14 02:39:33;;;;;;;6.07;3.83;;;;;;;;;;5524911;25;20012;-73
2024/04/14 02:41:59;;;;;;;7.38;3.22;;;;;;;;;;5522408;25;20069;-72
2024/04/14 02:44:25;;;;;;;8.20;3.15;;;;;;;;;;5525029;25;20488;-72
2024/04/14 02:46:51;;;;;;;5.18;3.55;;;;;;;;;;5527101;25;20004;-72
2024/04/14 02:49:17;;;;;;;7.53;3.42;;;;;;;;;;5526292;25;19997;-72
2024/04/14 02:51:43;;;;;;;6.13;3.47;;;;;;;;;;5522911;25;20004;-71
2024/04/14 02:54:09;;;;;;;7.45;4.22;;;;;;;;;;5522558;25;19998;-72
2024/04/14 02:56:35;;;;;;;7.38;3.30;;;;;;;;;;5524643;25;19998;-72
2024/04/14 02:59:01;;;;;;;6.05;4.55;;;;;;;;;;5522625;25;19997;-71
2024/04/14 03:01:27;;;;;;;4.82;3.95;;;;;;;;;;5522195;25;19998;-71
2024/04/14 03:03:53;;;;;;;5.45;3.58;;;;;;;;;;5523333;25;20074;-71
2024/04/14 03:06:19;;;;;;;5.38;4.10;;;;;;;;;;5524335;25;20032;-72
2024/04/14 03:08:45;;;;;;;6.70;4.05;;;;;;;;;;5523510;25;20428;-71
2024/04/14 03:11:11;;;;;;;6.57;3.88;;;;;;;;;;5522972;26;20127;-71
2024/04/14 03:13:37;;;;;;;7.47;4.72;;;;;;;;;;5523776;25;20108;-72
2024/04/14 03:16:03;;;;;;;7.35;4.00;;;;;;;;;;5523709;25;19997;-72
2024/04/14 03:18:30;;;;;;;7.07;4.28;;;;;;;;;;5524255;25;19989;-71
2024/04/14 03:20:59;;;;;;;7.75;4.13;;;;;;;;;;5521688;25;20087;-72
2024/04/14 03:23:26;;;;;;;9.43;4.35;;;;;;;;;;5523038;25;19994;-71
2024/04/14 03:25:52;;;;;;;11.45;5.15;;;;;;;;;;5523442;25;20037;-72
2024/04/14 03:28:19;;;;;;;5.55;4.13;;;;;;;;;;5523493;25;19994;-72
2024/04/14 03:30:45;;;;;;;10.10;4.13;;;;;;;;;;5523681;25;19997;-71
2024/04/14 03:33:11;;;;;;;6.32;4.28;;;;;;;;;;5522890;25;20447;-72
2024/04/14 03:35:37;;;;;;;6.97;4.20;;;;;;;;;;5523319;25;20520;-71
2024/04/14 03:38:03;;;;;;;6.78;4.55;;;;;;;;;;5521149;25;20002;-71
2024/04/14 03:40:29;;;;;;;8.70;3.97;;;;;;;;;;5523101;25;20339;-71
2024/04/14 03:42:55;;;;;;;6.32;3.90;;;;;;;;;;5520937;25;20346;-72
2024/04/14 03:45:24;;;;;;;11.43;4.30;;;;;;;;;;5521468;25;19994;-72
2024/04/14 03:47:52;;;;;;;7.35;4.38;;;;;;;;;;5523908;25;20004;-72
2024/04/14 03:50:18;;;;;;;6.50;4.50;;;;;;;;;;5523440;25;20005;-72
2024/04/14 03:52:44;;;;;;;7.35;3.88;;;;;;;;;;5520785;25;20004;-72
2024/04/14 03:55:10;;;;;;;7.93;4.38;;;;;;;;;;5523512;25;19998;-72
2024/04/14 03:57:36;;;;;;;8.70;4.57;;;;;;;;;;5523585;25;20458;-72
2024/04/14 04:00:02;;;;;;;8.80;4.40;;;;;;;;;;5523293;25;19994;-72
2024/04/14 04:02:28;;;;;;;6.03;4.28;;;;;;;;;;5522383;25;19994;-71
2024/04/14 04:04:54;;;;;;;10.82;4.50;;;;;;;;;;5522776;26;20288;-71
2024/04/14 04:07:20;;;;;;;5.93;4.13;;;;;;;;;;5524847;25;20420;-72
2024/04/14 04:09:46;;;;;;;9.13;4.13;;;;;;;;;;5527029;25;20004;-71
2024/04/14 04:12:12;;;;;;;9.95;3.83;;;;;;;;;;5527068;25;19994;-72
2024/04/14 04:14:38;;;;;;;10.98;4.72;;;;;;;;;;5526717;25;20346;-71
2024/04/14 04:17:04;;;;;;;5.57;3.97;;;;;;;;;;5524820;25;19994;-72
2024/04/14 04:19:30;;;;;;;7.60;4.72;;;;;;;;;;5526889;25;20007;-71
2024/04/14 04:21:56;;;;;;;6.13;4.30;;;;;;;;;;5524265;25;20368;-71
2024/04/14 04:24:22;;;;;;;5.15;4.32;;;;;;;;;;5526561;25;19993;-72
2024/04/14 04:26:48;;;;;;;6.72;4.15;;;;;;;;;;5525195;25;19993;-71
2024/04/14 04:29:14;;;;;;;5.30;4.32;;;;;;;;;;5528118;25;20005;-72
2024/04/14 04:31:40;;;;;;;9.43;5.45;;;;;;;;;;5526109;26;20008;-71
2024/04/14 04:34:06;;;;;;;7.78;5.15;;;;;;;;;;5528657;25;19993;-71
2024/04/14 04:36:32;;;;;;;7.93;4.90;;;;;;;;;;5527042;25;20335;-71
2024/04/14 04:39:03;;;;;;;13.68;5.15;;;;;;;;;;5527069;25;19993;-72
2024/04/14 04:41:33;;;;;;;6.35;4.40;;;;;;;;;;5526167;25;20006;-71
2024/04/14 04:44:03;;;;;;;8.27;4.65;;;;;;;;;;5524446;26;20006;-71
2024/04/14 04:46:29;;;;;;;7.40;4.30;;;;;;;;;;5526387;25;20010;-71
2024/04/14 04:48:59;;;;;;;8.73;4.97;;;;;;;;;;5523905;25;20432;-70
2024/04/14 04:51:25;;;;;;;11.63;4.78;;;;;;;;;;5525894;25;19997;-71
2024/04/14 04:53:51;;;;;;;5.28;4.68;;;;;;;;;;5526859;25;20004;-72
2024/04/14 04:56:17;;;;;;;5.75;4.25;;;;;;;;;;5528012;25;20049;-72
2024/04/14 04:58:43;;;;;;;9.85;5.03;;;;;;;;;;5528044;26;19997;-72
2024/04/14 05:01:10;;;;;;;9.27;4.65;;;;;;;;;;5533096;25;19998;-71
2024/04/14 05:03:36;;;;;;;6.32;4.53;;;;;;;;;;5528491;26;20008;-71
2024/04/14 05:06:03;;;;;;;7.55;4.85;;;;;;;;;;5531138;25;20042;-72
2024/04/14 05:08:30;;;;;;;9.00;4.75;;;;;;;;;;5527810;26;20017;-72
2024/04/14 05:10:57;;;;;;;8.07;4.82;;;;;;;;;;5526958;25;20004;-71
2024/04/14 05:13:24;;;;;;;6.38;4.13;;;;;;;;;;5527388;25;19989;-72
2024/04/14 05:15:50;;;;;;;13.77;3.85;;;;;;;;;;5532277;25;19993;-71
2024/04/14 05:18:16;;;;;;;7.75;4.50;;;;;;;;;;5529208;25;19996;-71
2024/04/14 05:20:43;;;;;;;7.60;5.00;;;;;;;;;;5524222;26;20435;-71
2024/04/14 05:23:09;;;;;;;7.10;4.63;;;;;;;;;;5525141;25;20351;-72
2024/04/14 05:25:36;;;;;;;8.98;4.63;;;;;;;;;;5525897;25;19997;-70
2024/04/14 05:28:02;;;;;;;11.32;5.00;;;;;;;;;;5526207;25;19997;-72
2024/04/14 05:30:28;;;;;;;7.15;4.60;;;;;;;;;;5526651;25;19993;-71
2024/04/14 05:32:57;;;;;;;9.15;5.28;;;;;;;;;;5525171;25;19997;-70
2024/04/14 05:35:24;;;;;;;8.93;5.32;;;;;;;;;;5527926;25;20333;-72
2024/04/14 05:37:50;;;;;;;7.43;4.63;;;;;;;;;;5526380;25;19994;-72
2024/04/14 05:40:16;;;;;;;7.80;5.15;;;;;;;;;;5525611;25;20119;-72
2024/04/14 05:42:42;;;;;;;7.82;5.15;;;;;;;;;;5524985;25;20024;-72
2024/04/14 05:45:08;;;;;;;8.07;4.32;;;;;;;;;;5525466;25;20454;-71
2024/04/14 05:47:35;;;;;;;3.78;3.05;;;;;;;;;;5525985;25;20005;-71
2024/04/14 05:50:01;;;;;;;5.95;3.33;;;;;;;;;;5525638;25;20483;-71
2024/04/14 05:52:27;;;;;;;4.60;2.88;;;;;;;;;;5524950;25;19997;-72
2024/04/14 05:54:53;;;;;;;3.13;2.25;;;;;;;;;;5523394;25;20171;-71
2024/04/14 05:57:19;;;;;;;3.22;1.90;;;;;;;;;;5525410;25;19997;-72
2024/04/14 05:59:45;;;;;;;3.08;1.73;;;;;;;;;;5528285;25;20029;-72
2024/04/14 06:02:11;;;;;;;2.20;1.75;;;;;;;;;;5524851;25;19994;-71
2024/04/14 06:04:37;;;;;;;4.85;1.42;;;;;;;;;;5524736;25;20089;-71
2024/04/14 06:07:04;;;;;;;4.25;1.40;;;;;;;;;;5525212;25;20005;-72
2024/04/14 06:09:30;;;;;;;4.10;1.40;;;;;;;;;;5525371;25;20073;-72
2024/04/14 06:11:56;;;;;;;3.42;1.60;;;;;;;;;;5522432;25;20003;-72
2024/04/14 06:14:22;;;;;;;3.30;1.10;;;;;;;;;;5524811;25;19993;-72
2024/04/14 06:16:49;;;;;;;4.93;1.35;;;;;;;;;;5523385;25;20021;-71
2024/04/14 06:19:17;;;;;;;2.97;1.45;;;;;;;;;;5525223;25;20503;-72
2024/04/14 06:21:43;;;;;;;5.90;1.65;;;;;;;;;;5524386;25;20442;-72
2024/04/14 06:24:09;;;;;;;5.05;1.55;;;;;;;;;;5522898;25;19997;-71
2024/04/14 06:26:35;;;;;;;2.72;1.02;;;;;;;;;;5524667;25;19998;-70
2024/04/14 06:29:01;;;;;;;6.45;1.38;;;;;;;;;;5526224;25;19998;-71
2024/04/14 06:31:27;;;;;;;3.00;1.10;;;;;;;;;;5525854;25;20009;-71
2024/04/14 06:33:53;;;;;;;3.55;1.23;;;;;;;;;;5524864;25;20061;-71
2024/04/14 06:36:19;;;;;;;2.92;0.85;;;;;;;;;;5525639;25;20005;-71
2024/04/14 06:38:45;;;;;;;1.98;1.00;;;;;;;;;;5525399;25;19997;-71
2024/04/14 06:41:11;;;;;;;2.88;1.20;;;;;;;;;;5525421;26;19990;-73
2024/04/14 06:43:37;;;;;;;3.38;1.95;;;;;;;;;;5525406;26;19994;-68
2024/04/14 06:46:03;;;;;;;3.05;1.10;;;;;;;;;;5525114;26;20493;-69
2024/04/14 06:48:29;;;;;;;5.65;1.08;;;;;;;;;;5524822;26;19997;-69
2024/04/14 06:50:55;;;;;;;11.50;1.58;;;;;;;;;;5523288;26;20339;-69
2024/04/14 06:53:21;;;;;;;6.88;2.03;;;;;;;;;;5525584;26;19993;-67
2024/04/14 06:55:51;;;;;;;4.82;1.40;;;;;;;;;;5529057;26;19998;-77
2024/04/14 06:58:17;;;;;;;3.35;1.30;;;;;;;;;;5533376;26;20004;-77
2024/04/14 07:00:43;;;;;;;5.78;1.70;;;;;;;;;;5531350;26;20005;-77
2024/04/14 07:03:09;;;;;;;5.93;1.23;;;;;;;;;;5531982;26;19993;-75
2024/04/14 07:05:36;;;;;;;3.08;1.35;;;;;;;;;;5498074;26;20012;-76
2024/04/14 07:08:02;;;;;;;3.95;1.67;;;;;;;;;;5526613;26;19990;-75
2024/04/14 07:10:28;;;;;;;7.18;1.73;;;;;;;;;;5528935;26;20017;-74
2024/04/14 07:12:54;;;;;;;3.83;1.10;;;;;;;;;;5526964;26;20005;-75
2024/04/14 07:15:20;;;;;;;2.13;0.88;;;;;;;;;;5528389;26;19993;-74
2024/04/14 07:17:46;;;;;;;2.63;1.45;;;;;;;;;;5528704;26;19998;-74
2024/04/14 07:20:12;;;;;;;4.30;1.25;;;;;;;;;;5528890;26;20008;-74
2024/04/14 07:22:38;;;;;;;5.60;1.10;;;;;;;;;;5528667;26;19994;-74
2024/04/14 07:25:05;;;;;;;3.60;1.10;;;;;;;;;;5528335;26;19997;-74
2024/04/14 07:27:31;;;;;;;1.90;1.00;;;;;;;;;;5528768;26;19993;-74
2024/04/14 07:29:57;;;;;;;4.00;1.27;;;;;;;;;;5528665;26;20004;-77
2024/04/14 07:32:23;;;;;;;2.50;0.95;;;;;;;;;;5526150;26;20470;-75
2024/04/14 07:34:49;;;;;;;2.38;0.85;;;;;;;;;;5526984;26;20069;-74
2024/04/14 07:37:15;;;;;;;3.25;1.27;;;;;;;;;;5525785;26;20042;-72
2024/04/14 07:39:41;;;;;;;5.38;1.48;;;;;;;;;;5520600;26;20065;-72
2024/04/14 07:42:08;;;;;;;2.65;1.40;;;;;;;;;;5523978;26;20001;-72
2024/04/14 07:44:34;;;;;;;3.58;1.13;;;;;;;;;;5523970;26;19997;-72
2024/04/14 07:47:00;;;;;;;4.07;1.10;;;;;;;;;;5523530;26;20395;-72
2024/04/14 07:49:26;;;;;;;3.97;1.20;;;;;;;;;;5523908;26;20005;-73
2024/04/14 07:51:52;;;;;;;2.72;1.30;;;;;;;;;;5526903;26;20284;-78
2024/04/14 07:54:18;;;;;;;2.78;0.93;;;;;;;;;;5531330;26;20285;-76
2024/04/14 07:56:44;;;;;;;4.63;1.20;;;;;;;;;;5532069;26;19999;-77
2024/04/14 07:59:10;;;;;;;5.75;1.27;;;;;;;;;;5526887;26;20004;-76
2024/04/14 08:01:36;;;;;;;9.15;0.95;;;;;;;;;;5526144;26;19990;-78
2024/04/14 08:04:02;;;;;;;4.07;1.23;;;;;;;;;;5524788;26;20001;-76
2024/04/14 08:06:28;;;;;;;7.30;1.52;;;;;;;;;;5524384;26;20401;-73
2024/04/14 08:08:54;;;;;;;3.85;1.15;;;;;;;;;;5522863;26;20040;-72
2024/04/14 08:11:21;;;;;;;7.32;1.58;;;;;;;;;;5523104;26;20058;-72
2024/04/14 08:13:47;;;;;;;2.50;1.23;;;;;;;;;;5522913;26;19994;-73
2024/04/14 08:16:13;;;;;;;3.78;0.77;;;;;;;;;;5522591;26;20008;-71
2024/04/14 08:18:39;;;;;;;2.25;1.15;;;;;;;;;;5523293;26;19998;-73
2024/04/14 08:21:05;;;;;;;5.32;1.10;;;;;;;;;;5523315;26;20459;-71
2024/04/14 08:23:31;;;;;;;3.10;1.05;;;;;;;;;;5524049;26;20339;-72
2024/04/14 08:26:00;;;;;;;9.55;1.23;;;;;;;;;;5523227;26;20001;-73
2024/04/14 08:28:26;;;;;;;1.83;1.10;;;;;;;;;;5523478;26;20001;-72
2024/04/14 08:30:52;;;;;;;3.97;1.08;;;;;;;;;;5522599;26;20076;-72
2024/04/14 08:33:18;;;;;;;4.35;1.08;;;;;;;;;;5520682;26;19993;-72
2024/04/14 08:35:44;;;;;;;3.10;0.95;;;;;;;;;;5520118;26;20038;-71
2024/04/14 08:38:10;;;;;;;2.45;1.02;;;;;;;;;;5522608;26;20439;-72
2024/04/14 08:40:36;;;;;;;4.20;1.75;;;;;;;;;;5522422;26;19998;-73
2024/04/14 08:43:03;;;;;;;3.63;0.80;;;;;;;;;;5522013;26;20008;-73
2024/04/14 08:45:30;;;;;;;3.78;1.48;;;;;;;;;;5522190;26;20454;-73
2024/04/14 08:47:57;;;;;;;3.20;0.93;;;;;;;;;;5523005;26;20026;-72
2024/04/14 08:50:24;;;;;;;3.50;0.88;;;;;;;;;;5524374;26;20128;-72
2024/04/14 08:52:50;;;;;;;3.03;1.00;;;;;;;;;;5529547;26;20081;-74
2024/04/14 08:55:16;;;;;;;5.75;1.23;;;;;;;;;;5528788;26;19994;-74
2024/04/14 08:57:43;;;;;;;2.85;1.20;;;;;;;;;;5528418;26;19999;-73
2024/04/14 09:00:12;;;;;;;6.72;1.17;;;;;;;;;;5525939;26;19993;-76
2024/04/14 09:02:40;;;;;;;3.77;1.13;;;;;;;;;;5524059;26;20406;-72
2024/04/14 09:05:09;;;;;;;2.67;1.13;;;;;;;;;;5526947;26;20001;-73
2024/04/14 09:07:35;;;;;;;2.35;0.93;;;;;;;;;;5526970;25;20002;-74
2024/04/14 09:10:01;;;;;;;3.88;1.10;;;;;;;;;;5525597;26;19997;-75
2024/04/14 09:12:28;;;;;;;4.43;1.60;;;;;;;;;;5528051;25;20012;-75
2024/04/14 09:14:54;;;;;;;2.63;1.17;;;;;;;;;;5528450;26;20011;-75
2024/04/14 09:17:20;;;;;;;4.82;1.40;;;;;;;;;;5524120;26;19997;-65
2024/04/14 09:19:46;;;;;;;5.30;1.60;;;;;;;;;;5525932;26;20013;-65
2024/04/14 09:22:16;;;;;;;7.40;1.60;;;;;;;;;;5525329;26;20015;-65
2024/04/14 09:24:42;;;;;;;5.57;1.30;;;;;;;;;;5523097;25;19997;-65
2024/04/14 09:27:08;;;;;;;5.32;1.00;;;;;;;;;;5525578;26;20289;-64
2024/04/14 09:29:34;;;;;;;4.72;1.55;;;;;;;;;;5523830;25;20045;-66
2024/04/14 09:32:00;;;;;;;2.75;0.95;;;;;;;;;;5523364;26;20428;-64
2024/04/14 09:34:27;;;;;;;5.88;1.60;;;;;;;;;;5524142;26;20012;-65
2024/04/14 09:36:53;;;;;;;4.07;1.40;;;;;;;;;;5525851;25;20042;-64
2024/04/14 09:39:19;;;;;;;5.80;1.40;;;;;;;;;;5525215;25;20058;-66
2024/04/14 09:41:46;;;;;;;5.57;1.38;;;;;;;;;;5522523;26;19997;-66
2024/04/14 09:44:13;;;;;;;4.43;1.52;;;;;;;;;;5522947;25;20324;-64
2024/04/14 09:46:40;;;;;;;2.67;1.40;;;;;;;;;;5525148;26;20451;-65
2024/04/14 09:49:07;;;;;;;3.90;1.40;;;;;;;;;;5525241;26;20009;-65
2024/04/14 09:51:35;;;;;;;3.33;1.25;;;;;;;;;;5523477;26;19997;-65
2024/04/14 09:54:02;;;;;;;6.20;1.40;;;;;;;;;;5524555;25;20022;-65
2024/04/14 09:56:30;;;;;;;3.83;1.10;;;;;;;;;;5524628;26;20340;-64
2024/04/14 09:58:56;;;;;;;2.70;0.98;;;;;;;;;;5522821;26;20021;-64
2024/04/14 10:01:26;;;;;;;2.22;1.17;;;;;;;;;;5523587;26;20466;-64
2024/04/14 10:03:55;;;;;;;5.65;1.20;;;;;;;;;;5523434;25;20002;-63
2024/04/14 10:06:21;;;;;;;6.05;1.30;;;;;;;;;;5518937;26;19998;-65
2024/04/14 10:08:48;;;;;;;3.38;1.40;;;;;;;;;;5509191;25;20401;-64
2024/04/14 10:11:14;;;;;;;10.70;1.30;;;;;;;;;;5509616;26;20008;-65
2024/04/14 10:14:09;;;;;;;3.13;1.70;;;;;;;;;;5493455;25;20312;-68
2024/04/14 10:16:35;;;;;;;3.92;0.95;;;;;;;;;;5463402;26;20336;-73
2024/04/14 10:19:05;;;;;;;2.65;0.80;;;;;;;;;;5489769;26;20337;-76
2024/04/14 10:21:31;;;;;;;4.53;0.98;;;;;;;;;;5518077;26;20012;-74
2024/04/14 10:23:57;;;;;;;1.83;0.95;;;;;;;;;;5526345;26;19998;-74
2024/04/14 10:26:23;;;;;;;6.22;1.35;;;;;;;;;;5524729;26;20329;-75
2024/04/14 10:28:53;;;;;;;3.20;0.95;;;;;;;;;;5523602;26;20072;-73
2024/04/14 10:31:28;;;;;;;3.25;0.98;;;;;;;;;;5525088;26;20038;-72
2024/04/14 10:34:04;;;;;;;4.32;1.65;;;;;;;;;;5524978;25;20120;-74
2024/04/14 10:36:31;;;;;;;4.45;1.30;;;;;;;;;;5526493;26;20474;-73
2024/04/14 10:38:57;;;;;;;4.65;1.42;;;;;;;;;;5525986;25;20013;-73
2024/04/14 10:41:23;;;;;;;2.70;1.05;;;;;;;;;;5526362;26;19994;-73
2024/04/14 10:43:49;;;;;;;2.80;0.90;;;;;;;;;;5523107;26;20017;-74
2024/04/14 10:46:15;;;;;;;2.35;1.00;;;;;;;;;;5523771;26;20006;-74
2024/04/14 10:48:45;;;;;;;1.42;0.80;;;;;;;;;;5525821;25;19998;-73
2024/04/14 10:51:11;;;;;;;2.25;1.20;;;;;;;;;;5528353;26;20031;-73
2024/04/14 10:53:38;;;;;;;2.30;1.00;;;;;;;;;;5527468;26;20001;-74
2024/04/14 10:56:04;;;;;;;3.55;0.85;;;;;;;;;;5525823;26;20188;-73
2024/04/14 10:58:31;;;;;;;3.53;1.00;;;;;;;;;;5523513;26;20005;-74
2024/04/14 11:00:57;;;;;;;2.92;1.00;;;;;;;;;;5525227;26;20025;-73
2024/04/14 11:03:23;;;;;;;5.07;1.00;;;;;;;;;;5521999;26;20001;-67
2024/04/14 11:05:50;;;;;;;6.78;1.52;;;;;;;;;;5524732;26;20091;-69
2024/04/14 11:08:17;;;;;;;1.08;0.70;;;;;;;;;;5524800;26;20000;-68
2024/04/14 11:10:44;;;;;;;7.40;1.50;;;;;;;;;;5525395;26;20002;-68
2024/04/14 11:13:12;;;;;;;5.63;1.08;;;;;;;;;;5523172;25;20448;-68
2024/04/14 11:15:39;;;;;;;7.32;1.05;;;;;;;;;;5519513;25;20012;-68
2024/04/14 11:18:05;;;;;;;2.83;1.00;;;;;;;;;;5504327;26;20013;-68
2024/04/14 11:20:31;;;;;;;3.53;0.80;;;;;;;;;;5498853;26;20021;-67
2024/04/14 11:23:01;;;;;;;2.47;1.13;;;;;;;;;;5513836;26;20033;-67
2024/04/14 11:25:27;;;;;;;4.13;1.17;;;;;;;;;;5508339;26;20077;-66
2024/04/14 11:27:53;;;;;;;4.28;1.10;;;;;;;;;;5501185;25;20013;-67
2024/04/14 11:30:19;;;;;;;4.40;0.98;;;;;;;;;;5502188;26;20447;-68
2024/04/14 11:32:45;;;;;;;3.65;1.33;;;;;;;;;;5501851;26;20006;-68
2024/04/14 11:35:13;;;;;;;2.25;0.85;;;;;;;;;;5505588;26;19998;-67
2024/04/14 11:37:44;;;;;;;2.72;0.95;;;;;;;;;;5501983;25;20466;-68
2024/04/14 11:40:13;;;;;;;2.92;1.02;;;;;;;;;;5494206;26;20459;-68
2024/04/14 11:42:39;;;;;;;2.75;1.00;;;;;;;;;;5487399;26;20009;-69
2024/04/14 11:45:06;;;;;;;3.80;1.23;;;;;;;;;;5488271;26;20366;-67
2024/04/14 11:47:32;;;;;;;5.05;1.20;;;;;;;;;;5487807;26;19994;-69
2024/04/14 11:49:58;;;;;;;2.22;1.02;;;;;;;;;;5487399;26;19994;-70
2024/04/14 11:52:24;;;;;;;4.88;1.48;;;;;;;;;;5486168;26;20078;-68
2024/04/14 11:54:50;;;;;;;2.42;1.00;;;;;;;;;;5487368;26;20010;-66
2024/04/14 11:57:16;;;;;;;10.48;2.10;;;;;;;;;;5489234;26;19998;-75
2024/04/14 11:59:42;;;;;;;6.13;1.20;;;;;;;;;;5494904;26;20006;-73
2024/04/14 12:02:09;;;;;;;2.25;0.60;;;;;;;;;;5499296;26;20006;-73
2024/04/14 12:04:35;;;;;;;6.28;1.52;;;;;;;;;;5514496;25;19997;-75
2024/04/14 12:07:01;;;;;;;4.03;0.90;;;;;;;;;;5514601;26;20018;-73
2024/04/14 12:09:27;;;;;;;3.25;1.05;;;;;;;;;;5515598;25;19997;-75
2024/04/14 12:11:53;;;;;;;5.03;1.20;;;;;;;;;;5511505;26;19998;-73
2024/04/14 12:14:19;;;;;;;4.80;0.98;;;;;;;;;;5526090;25;20001;-75
2024/04/14 12:16:47;;;;;;;2.13;0.90;;;;;;;;;;5517238;26;20009;-74
2024/04/14 12:19:13;;;;;;;1.70;0.80;;;;;;;;;;5521896;25;20013;-73
2024/04/14 12:21:39;;;;;;;3.15;0.95;;;;;;;;;;5525701;25;20017;-75
2024/04/14 12:24:06;;;;;;;3.92;0.73;;;;;;;;;;5525719;25;20049;-75
2024/04/14 12:26:33;;;;;;;2.78;1.10;;;;;;;;;;5525798;26;19997;-75
2024/04/14 12:28:59;;;;;;;2.40;0.95;;;;;;;;;;5512266;26;20073;-76
2024/04/14 12:31:25;;;;;;;2.97;0.90;;;;;;;;;;5514379;25;19998;-77
2024/04/14 12:33:51;;;;;;;2.55;1.25;;;;;;;;;;5512126;26;19997;-77
2024/04/14 12:36:17;;;;;;;2.20;0.63;;;;;;;;;;5500012;26;20437;-75
2024/04/14 12:38:44;;;;;;;2.38;0.50;;;;;;;;;;5489493;26;19997;-76
2024/04/14 12:41:10;;;;;;;3.28;0.50;;;;;;;;;;5495516;26;19994;-76
2024/04/14 12:43:36;;;;;;;7.85;1.23;;;;;;;;;;5494635;26;20055;-77
2024/04/14 12:46:02;;;;;;;10.77;1.88;;;;;;;;;;5497924;26;20022;-76
2024/04/14 12:48:28;;;;;;;3.72;1.10;;;;;;;;;;5505056;26;20030;-78
2024/04/14 12:50:54;;;;;;;4.20;0.75;;;;;;;;;;5504514;26;21761;-75
2024/04/14 12:53:21;;;;;;;8.13;1.35;;;;;;;;;;5531536;26;20013;-77
2024/04/14 12:55:47;;;;;;;8.43;2.47;;;;;;;;;;5530825;26;20027;-77
2024/04/14 12:58:14;;;;;;;5.35;1.08;;;;;;;;;;5530172;25;19993;-74
2024/04/14 13:00:40;;;;;;;2.17;0.63;;;;;;;;;;5525592;25;20340;-75
2024/04/14 13:03:06;;;;;;;3.65;0.80;;;;;;;;;;5524849;25;20022;-76
2024/04/14 13:05:32;;;;;;;2.42;0.90;;;;;;;;;;5525452;25;19997;-74
2024/04/14 13:07:59;;;;;;;1.45;0.63;;;;;;;;;;5527183;26;20005;-75
2024/04/14 13:10:25;;;;;;;1.42;0.73;;;;;;;;;;5525385;25;20004;-74
2024/04/14 13:12:51;;;;;;;3.00;0.50;;;;;;;;;;5525923;26;19993;-75
2024/04/14 13:15:18;;;;;;;2.45;0.95;;;;;;;;;;5526546;25;20022;-75
2024/04/14 13:17:44;;;;;;;3.63;0.52;;;;;;;;;;5527102;25;20073;-75
2024/04/14 13:20:11;;;;;;;3.40;0.82;;;;;;;;;;5526361;25;20070;-74
2024/04/14 13:22:37;;;;;;;4.63;0.70;;;;;;;;;;5526126;25;19997;-73
2024/04/14 13:25:04;;;;;;;4.22;0.95;;;;;;;;;;5526769;25;20021;-75
2024/04/14 13:27:30;;;;;;;2.33;0.82;;;;;;;;;;5525650;26;19989;-76
2024/04/14 13:29:56;;;;;;;2.95;1.10;;;;;;;;;;5526869;25;20062;-76
2024/04/14 13:32:22;;;;;;;2.83;0.77;;;;;;;;;;5523747;25;19997;-74
2024/04/14 13:34:52;;;;;;;6.97;1.40;;;;;;;;;;5524280;25;19997;-76
2024/04/14 13:37:18;;;;;;;1.47;0.60;;;;;;;;;;5526279;26;20397;-75
2024/04/14 13:39:45;;;;;;;1.55;0.77;;;;;;;;;;5526733;25;19993;-75
2024/04/14 13:42:14;;;;;;;5.78;0.90;;;;;;;;;;5526204;26;20008;-74
2024/04/14 13:44:40;;;;;;;9.05;1.70;;;;;;;;;;5525975;26;20012;-76
2024/04/14 13:47:08;;;;;;;3.00;1.60;;;;;;;;;;5524975;25;20062;-76
2024/04/14 13:49:34;;;;;;;3.47;0.80;;;;;;;;;;5523951;25;20134;-74
2024/04/14 13:52:00;;;;;;;6.68;1.60;;;;;;;;;;5520534;26;20073;-75
2024/04/14 13:54:26;;;;;;;2.45;0.70;;;;;;;;;;5528092;26;20055;-75
2024/04/14 13:56:52;;;;;;;2.13;0.68;;;;;;;;;;5524348;26;20452;-74
2024/04/14 13:59:18;;;;;;;3.40;0.82;;;;;;;;;;5526061;26;20308;-75
2024/04/14 14:01:44;;;;;;;2.80;1.27;;;;;;;;;;5505148;25;19999;-74
2024/04/14 14:04:10;;;;;;;1.88;0.70;;;;;;;;;;5516386;26;20343;-75
2024/04/14 14:06:38;;;;;;;1.05;0.47;;;;;;;;;;5523439;25;20077;-74
2024/04/14 14:09:04;;;;;;;3.15;0.93;;;;;;;;;;5524333;26;20327;-74
2024/04/14 14:11:33;;;;;;;5.22;1.00;;;;;;;;;;5525426;25;20432;-78
2024/04/14 14:13:59;;;;;;;7.20;0.98;;;;;;;;;;5525832;26;20005;-75
2024/04/14 14:16:25;;;;;;;4.45;0.90;;;;;;;;;;5525968;26;19994;-75
2024/04/14 14:18:51;;;;;;;3.08;0.90;;;;;;;;;;5495657;26;20008;-76
2024/04/14 14:21:17;;;;;;;2.85;1.42;;;;;;;;;;5524825;25;20083;-75
2024/04/14 14:23:43;;;;;;;4.50;1.35;;;;;;;;;;5525264;26;20010;-75
2024/04/14 14:26:10;;;;;;;2.22;1.05;;;;;;;;;;5523260;26;20073;-75
2024/04/14 14:28:36;;;;;;;1.98;0.60;;;;;;;;;;5523402;26;19998;-76
2024/04/14 14:31:02;;;;;;;1.88;1.08;;;;;;;;;;5525236;25;20340;-75
2024/04/14 14:36:33;;;;;;;5.40;0.90;;;;;;;;;;5526773;26;20012;-74
2024/04/14 14:38:59;;;;;;;4.28;0.75;;;;;;;;;;5496924;26;20001;-75
2024/04/14 14:41:26;;;;;;;3.45;0.93;;;;;;;;;;5528959;25;20065;-75